createdAt,value
2023-04-03T00:00:53.343Z,2.23
2023-04-03T00:04:56.241Z,2.18
2023-04-03T00:08:58.535Z,2.16
2023-04-03T00:13:00.617Z,2.15
2023-04-03T00:17:02.757Z,2.17
2023-04-03T00:21:05.743Z,2.30
2023-04-03T00:25:08.367Z,2.23
2023-04-03T00:29:10.389Z,2.20
2023-04-03T00:33:13.860Z,2.26
2023-04-03T00:37:15.935Z,2.31
2023-04-03T00:41:18.341Z,2.30
2023-04-03T00:45:35.037Z,2.25
2023-04-03T00:49:39.525Z,2.15
2023-04-03T00:53:50.350Z,2.19
2023-04-03T00:57:53.587Z,2.18
2023-04-03T01:01:57.013Z,2.16
2023-04-03T01:05:59.604Z,2.19
2023-04-03T01:10:07.781Z,2.21
2023-04-03T01:14:09.883Z,2.19
2023-04-03T01:18:12.381Z,2.18
2023-04-03T01:22:30.752Z,2.15
2023-04-03T01:26:34.401Z,2.08
2023-04-03T01:30:44.076Z,2.08
2023-04-03T01:34:46.622Z,2.11
2023-04-03T01:38:49.757Z,2.09
2023-04-03T01:42:51.838Z,2.08
2023-04-03T01:46:54.216Z,2.10
2023-04-03T01:50:58.072Z,2.08
2023-04-03T01:55:00.311Z,2.07
2023-04-03T01:59:02.685Z,2.04
2023-04-03T02:03:04.826Z,2.04
2023-04-03T02:07:07.312Z,2.01
2023-04-03T02:11:09.344Z,1.96
2023-04-03T02:15:11.451Z,1.96
2023-04-03T02:19:13.554Z,1.96
2023-04-03T02:23:15.990Z,1.95
2023-04-03T02:27:18.575Z,1.89
2023-04-03T02:31:21.739Z,1.83
2023-04-03T02:35:24.084Z,1.75
2023-04-03T02:39:27.120Z,1.68
2023-04-03T02:43:30.361Z,1.64
2023-04-03T02:47:32.525Z,1.57
2023-04-03T02:51:34.842Z,1.53
2023-04-03T02:55:36.987Z,1.47
2023-04-03T02:59:42.518Z,1.44
2023-04-03T03:03:46.349Z,1.74
2023-04-03T03:07:48.575Z,1.69
2023-04-03T03:11:50.779Z,1.51
2023-04-03T03:15:52.977Z,1.35
2023-04-03T03:19:55.120Z,1.30
2023-04-03T03:23:57.306Z,1.16
2023-04-03T03:27:59.317Z,1.11
2023-04-03T03:32:01.586Z,0.99
2023-04-03T03:36:04.006Z,0.85
2023-04-03T03:40:06.825Z,0.77
2023-04-03T03:44:09.012Z,0.73
2023-04-03T03:48:11.293Z,0.67
2023-04-03T03:52:13.492Z,0.51
2023-04-03T03:56:15.639Z,0.38
2023-04-03T04:00:19.058Z,0.27
2023-04-03T04:04:27.620Z,0.21
2023-04-03T04:08:30.772Z,0.07
2023-04-03T04:12:33.197Z,-0.06
2023-04-03T04:16:35.545Z,-0.16
2023-04-03T04:20:46.272Z,-0.26
2023-04-03T04:24:49.553Z,-0.39
2023-04-03T04:28:51.837Z,-0.57
2023-04-03T04:32:55.433Z,-0.70
2023-04-03T04:36:58.326Z,-0.81
2023-04-03T04:41:01.721Z,-0.85
2023-04-03T04:45:04.185Z,-0.90
2023-04-03T04:49:06.609Z,-0.96
2023-04-03T04:53:09.539Z,-1.02
2023-04-03T04:57:11.861Z,-1.09
2023-04-03T05:01:14.513Z,-1.16
2023-04-03T05:05:25.278Z,-1.24
2023-04-03T05:09:27.484Z,-1.24
2023-04-03T05:13:29.945Z,-1.26
2023-04-03T05:17:32.982Z,-1.25
2023-04-03T05:21:36.196Z,-1.29
2023-04-03T05:25:46.073Z,-1.29
2023-04-03T05:29:48.627Z,-1.31
2023-04-03T05:33:56.005Z,-1.32
2023-04-03T05:37:58.168Z,-1.32
2023-04-03T05:42:01.205Z,-1.33
2023-04-03T05:46:03.751Z,-1.38
2023-04-03T05:50:06.679Z,-1.33
2023-04-03T05:54:21.455Z,-1.33
2023-04-03T05:58:24.078Z,-1.28
2023-04-03T06:02:28.075Z,-1.28
2023-04-03T06:06:48.621Z,-1.27
2023-04-03T06:10:52.419Z,-1.24
2023-04-03T06:14:54.439Z,-1.18
2023-04-03T06:18:57.090Z,-1.16
2023-04-03T06:22:59.579Z,-1.12
2023-04-03T06:27:03.274Z,-0.85
2023-04-03T06:31:05.343Z,-0.05
2023-04-03T06:35:08.094Z,3.22
2023-04-03T06:39:15.431Z,4.93
2023-04-03T06:43:17.481Z,5.83
2023-04-03T06:47:19.839Z,6.12
2023-04-03T06:51:25.367Z,6.18
2023-04-03T06:55:27.725Z,5.65
2023-04-03T06:59:29.790Z,3.35
2023-04-03T07:03:33.417Z,1.17
2023-04-03T07:07:36.773Z,0.38
2023-04-03T07:11:38.856Z,0.03
2023-04-03T07:15:40.890Z,-0.18
2023-04-03T07:19:42.971Z,-0.30
2023-04-03T07:23:45.404Z,-0.23
2023-04-03T07:27:47.443Z,-0.19
2023-04-03T07:31:50.236Z,-0.12
2023-04-03T07:35:52.734Z,-0.11
2023-04-03T07:39:56.152Z,-0.09
2023-04-03T07:43:58.591Z,-0.00
2023-04-03T07:48:01.043Z,0.19
2023-04-03T07:52:03.396Z,0.34
2023-04-03T07:56:05.839Z,0.40
2023-04-03T08:00:08.686Z,0.58
2023-04-03T08:04:16.754Z,0.78
2023-04-03T08:08:22.929Z,0.78
2023-04-03T08:12:24.931Z,0.85
2023-04-03T08:16:27.960Z,1.24
2023-04-03T08:20:30.084Z,1.04
2023-04-03T08:24:33.565Z,1.26
2023-04-03T08:28:35.676Z,1.32
2023-04-03T08:32:38.018Z,1.55
2023-04-03T08:36:40.062Z,1.71
2023-04-03T08:40:42.649Z,1.74
2023-04-03T08:45:01.119Z,1.68
2023-04-03T08:49:03.687Z,1.59
2023-04-03T08:53:13.051Z,1.44
2023-04-03T08:57:15.617Z,1.52
2023-04-03T09:01:37.933Z,1.67
2023-04-03T09:05:49.788Z,1.78
2023-04-03T09:09:53.963Z,1.75
2023-04-03T09:14:03.975Z,1.92
2023-04-03T09:18:12.054Z,1.71
2023-04-03T09:22:28.532Z,1.90
2023-04-03T09:26:34.185Z,1.91
2023-04-03T09:30:37.086Z,2.32
2023-04-03T09:34:42.711Z,2.37
2023-04-03T09:38:44.720Z,2.77
2023-04-03T09:42:51.927Z,2.91
2023-04-03T09:46:58.209Z,2.62
2023-04-03T09:51:02.680Z,2.44
2023-04-03T09:55:09.381Z,2.31
2023-04-03T09:59:17.865Z,2.50
2023-04-03T10:03:36.497Z,2.88
2023-04-03T10:07:39.101Z,2.80
2023-04-03T10:12:07.983Z,3.14
2023-04-03T10:16:15.890Z,3.13
2023-04-03T10:20:38.430Z,2.83
2023-04-03T10:25:05.565Z,3.12
2023-04-03T10:29:19.725Z,3.39
2023-04-03T10:33:33.984Z,3.35
2023-04-03T10:37:42.250Z,3.18
2023-04-03T10:42:12.843Z,3.20
2023-04-03T10:46:23.782Z,3.42
2023-04-03T10:50:37.003Z,3.64
2023-04-03T10:55:14.440Z,3.54
2023-04-03T10:59:41.420Z,3.45
2023-04-03T11:03:48.884Z,3.44
2023-04-03T11:07:54.313Z,3.58
2023-04-03T11:12:03.133Z,3.54
2023-04-03T11:16:06.609Z,3.60
2023-04-03T11:20:20.463Z,3.67
2023-04-03T11:24:29.595Z,3.60
2023-04-03T11:28:33.135Z,3.68
2023-04-03T11:33:08.250Z,3.69
2023-04-03T11:37:39.670Z,3.77
2023-04-03T11:41:41.708Z,4.03
2023-04-03T11:45:50.623Z,3.90
2023-04-03T11:50:02.411Z,3.52
2023-04-03T11:54:44.751Z,3.71
2023-04-03T11:59:06.041Z,3.78
2023-04-03T12:03:28.312Z,3.67
2023-04-03T12:07:30.405Z,3.83
2023-04-03T12:11:34.646Z,4.03
2023-04-03T12:15:48.791Z,4.31
2023-04-03T12:19:51.269Z,4.47
2023-04-03T12:24:04.838Z,4.51
2023-04-03T12:28:11.568Z,4.28
2023-04-03T12:32:38.537Z,4.34
2023-04-03T12:36:49.110Z,4.17
2023-04-03T12:41:02.127Z,4.16
2023-04-03T12:45:22.607Z,4.02
2023-04-03T12:49:27.445Z,3.98
2023-04-03T12:53:35.204Z,4.06
2023-04-03T12:57:37.417Z,4.32
2023-04-03T13:01:39.604Z,4.37
2023-04-03T13:05:46.351Z,4.57
2023-04-03T13:10:00.762Z,4.62
2023-04-03T13:14:17.858Z,4.83
2023-04-03T13:18:39.082Z,4.50
2023-04-03T13:22:50.404Z,4.36
2023-04-03T13:26:53.405Z,4.48
2023-04-03T13:31:17.845Z,4.49
2023-04-03T13:35:36.648Z,4.77
2023-04-03T13:39:40.671Z,5.11
2023-04-03T13:43:43.190Z,5.38
2023-04-03T13:47:47.105Z,5.46
2023-04-03T13:51:57.168Z,4.80
2023-04-03T13:56:30.018Z,4.47
2023-04-03T14:00:40.279Z,4.46
2023-04-03T14:04:45.467Z,4.60
2023-04-03T14:08:49.777Z,4.69
2023-04-03T14:12:52.069Z,4.63
2023-04-03T14:16:57.162Z,4.69
2023-04-03T14:20:59.189Z,4.84
2023-04-03T14:25:01.847Z,4.91
2023-04-03T14:29:04.133Z,4.80
2023-04-03T14:33:07.886Z,4.75
2023-04-03T14:37:15.733Z,4.77
2023-04-03T14:41:21.913Z,4.79
2023-04-03T14:45:24.097Z,4.77
2023-04-03T14:49:30.030Z,4.84
2023-04-03T14:53:38.811Z,4.83
2023-04-03T14:57:41.134Z,4.58
2023-04-03T15:01:43.322Z,4.62
2023-04-03T15:05:47.085Z,4.74
2023-04-03T15:09:50.041Z,4.77
2023-04-03T15:13:52.075Z,4.82
2023-04-03T15:17:58.510Z,4.80
2023-04-03T15:22:00.937Z,4.72
2023-04-03T15:26:03.792Z,4.56
2023-04-03T15:30:09.342Z,4.53
2023-04-03T15:34:11.433Z,4.53
2023-04-03T15:38:13.516Z,4.62
2023-04-03T15:42:15.543Z,4.64
2023-04-03T15:46:17.592Z,4.68
2023-04-03T15:50:19.676Z,4.48
2023-04-03T15:54:21.726Z,4.38
2023-04-03T15:58:23.824Z,4.44
2023-04-03T16:02:28.227Z,4.42
2023-04-03T16:06:31.546Z,4.53
2023-04-03T16:10:33.650Z,4.72
2023-04-03T16:14:35.664Z,4.47
2023-04-03T16:18:37.959Z,4.31
2023-04-03T16:22:40.880Z,4.32
2023-04-03T16:26:42.914Z,4.25
2023-04-03T16:30:48.035Z,4.15
2023-04-03T16:34:50.197Z,4.15
2023-04-03T16:38:52.395Z,4.07
2023-04-03T16:42:54.441Z,3.93
2023-04-03T16:46:56.654Z,3.86
2023-04-03T16:50:58.958Z,3.76
2023-04-03T16:55:01.050Z,3.69
2023-04-03T16:59:03.221Z,3.64
2023-04-03T17:03:05.366Z,3.57
2023-04-03T17:07:08.227Z,3.49
2023-04-03T17:11:10.318Z,3.45
2023-04-03T17:15:12.420Z,3.35
2023-04-03T17:19:14.610Z,3.28
2023-04-03T17:23:16.587Z,3.24
2023-04-03T17:27:18.583Z,3.19
2023-04-03T17:31:20.782Z,3.13
2023-04-03T17:35:23.246Z,2.97
2023-04-03T17:39:25.435Z,2.88
2023-04-03T17:43:28.094Z,2.76
2023-04-03T17:47:30.327Z,2.69
2023-04-03T17:51:35.379Z,2.62
2023-04-03T17:55:39.344Z,2.52
2023-04-03T17:59:41.705Z,2.41
2023-04-03T18:03:44.367Z,2.31
2023-04-03T18:07:46.607Z,2.27
2023-04-03T18:11:50.155Z,2.17
2023-04-03T18:15:52.222Z,2.11
2023-04-03T18:19:54.332Z,2.07
2023-04-03T18:23:56.795Z,2.01
2023-04-03T18:28:00.091Z,1.94
2023-04-03T18:32:06.663Z,1.85
2023-04-03T18:36:09.126Z,1.76
2023-04-03T18:40:11.914Z,1.68
2023-04-03T18:44:17.722Z,1.62
2023-04-03T18:48:21.181Z,1.53
2023-04-03T18:52:25.238Z,1.47
2023-04-03T18:56:28.127Z,1.44
2023-04-03T19:00:30.441Z,1.40
2023-04-03T19:04:32.592Z,1.37
2023-04-03T19:08:35.172Z,1.35
2023-04-03T19:12:37.148Z,1.31
2023-04-03T19:16:39.433Z,1.29
2023-04-03T19:20:41.522Z,1.25
2023-04-03T19:24:43.615Z,1.16
2023-04-03T19:28:48.813Z,1.16
2023-04-03T19:32:51.601Z,1.11
2023-04-03T19:36:55.333Z,1.05
2023-04-03T19:40:57.724Z,0.99
2023-04-03T19:44:59.813Z,0.91
2023-04-03T19:49:02.246Z,0.92
2023-04-03T19:53:04.570Z,0.89
2023-04-03T19:57:07.227Z,0.80
2023-04-03T20:01:09.296Z,0.78
2023-04-03T20:05:11.648Z,0.69
2023-04-03T20:09:13.663Z,0.65
2023-04-03T20:13:15.750Z,0.59
2023-04-03T20:17:17.764Z,0.54
2023-04-03T20:21:19.795Z,0.55
2023-04-03T20:25:43.721Z,0.46
2023-04-03T20:29:44.511Z,0.41
2023-04-03T20:33:48.506Z,0.38
2023-04-03T20:37:50.961Z,0.36
2023-04-03T20:41:52.993Z,0.33
2023-04-03T20:45:55.629Z,0.31
2023-04-03T20:49:57.764Z,0.29
2023-04-03T20:53:59.783Z,0.23
2023-04-03T20:58:02.158Z,0.19
2023-04-03T21:02:04.592Z,0.14
2023-04-03T21:06:44.251Z,0.09
2023-04-03T21:11:24.458Z,0.01
2023-04-03T21:15:54.677Z,-0.08
2023-04-03T21:19:57.006Z,-0.15
2023-04-03T21:24:01.060Z,-0.13
2023-04-03T21:28:04.143Z,-0.16
2023-04-03T21:32:06.211Z,-0.19
2023-04-03T21:36:11.225Z,-0.25
2023-04-03T21:40:13.415Z,-0.26
2023-04-03T21:44:15.497Z,-0.28
2023-04-03T21:48:19.079Z,-0.32
2023-04-03T21:52:21.180Z,-0.36
2023-04-03T21:56:24.275Z,-0.39
2023-04-03T22:00:26.464Z,-0.43
2023-04-03T22:04:29.946Z,-0.44
2023-04-03T22:08:31.935Z,-0.44
2023-04-03T22:12:34.103Z,-0.34
2023-04-03T22:16:36.276Z,-0.43
2023-04-03T22:20:38.426Z,-0.49
2023-04-03T22:24:40.940Z,-0.57
2023-04-03T22:28:45.832Z,-0.63
2023-04-03T22:32:47.843Z,-0.67
2023-04-03T22:36:49.862Z,-0.69
2023-04-03T22:41:03.487Z,-0.71
2023-04-03T22:45:06.625Z,-0.76
2023-04-03T22:49:08.685Z,-0.79
2023-04-03T22:53:11.101Z,-0.80
2023-04-03T22:57:13.117Z,-0.85
2023-04-03T23:01:15.790Z,-0.92
2023-04-03T23:05:18.056Z,-0.97
2023-04-03T23:09:20.145Z,-1.03
2023-04-03T23:13:23.252Z,-1.04
2023-04-03T23:17:25.307Z,-1.05
2023-04-03T23:21:27.935Z,-1.05
2023-04-03T23:25:30.238Z,-1.07
2023-04-03T23:29:33.148Z,-1.08
2023-04-03T23:33:38.264Z,-1.09
2023-04-03T23:37:40.567Z,-1.12
2023-04-03T23:41:44.282Z,-1.16
2023-04-03T23:45:46.768Z,-1.16
2023-04-03T23:49:48.864Z,-1.19
2023-04-03T23:53:51.068Z,-1.22
2023-04-03T23:57:53.089Z,-1.23
